Time;durP1;ratioP1;P1;durP2;ratioP2;P2;SDS_P1;SDS_P2;PMS_P1;PMS_P2;Temp;Humidity;BMP_temperature;BMP_pressure;BME280_temperature;BME280_humidity;BME280_pressure;Samples;Min_cycle;Max_cycle;Signal;HPM_P1;HPM_P2
2021/05/12 00:02:15;;;;;;;3.13;2.50;;;;;;;14.69;49.67;99453.47;5031678;28;20018;-49
2021/05/12 00:04:40;;;;;;;5.15;2.50;;;;;;;14.44;50.14;99438.50;5029587;28;20469;-51
2021/05/12 00:07:06;;;;;;;4.55;2.80;;;;;;;14.61;49.89;99452.00;5026785;28;20036;-52
2021/05/12 00:09:31;;;;;;;5.55;2.90;;;;;;;14.53;49.86;99443.50;5021276;28;20041;-50
2021/05/12 00:11:57;;;;;;;3.67;2.55;;;;;;;14.44;49.99;99446.53;5011402;28;20026;-50
2021/05/12 00:14:22;;;;;;;4.63;2.70;;;;;;;14.23;50.98;99445.28;5011420;28;20053;-50
2021/05/12 00:16:48;;;;;;;4.80;2.70;;;;;;;14.33;50.18;99450.03;5010703;28;20030;-53
2021/05/12 00:19:13;;;;;;;4.05;2.78;;;;;;;14.18;50.97;99441.66;5019024;28;20037;-52
2021/05/12 00:21:45;;;;;;;3.88;2.60;;;;;;;14.20;50.25;99447.59;5031430;28;20018;-50
2021/05/12 00:24:10;;;;;;;5.85;2.80;;;;;;;14.28;50.44;99441.91;5031074;28;20047;-49
2021/05/12 00:26:37;;;;;;;4.18;2.95;;;;;;;14.36;50.44;99438.88;5031426;28;20045;-52
2021/05/12 00:29:12;;;;;;;4.78;2.60;;;;;;;14.09;50.86;99435.88;5031508;28;20488;-51
2021/05/12 00:31:38;;;;;;;5.50;3.08;;;;;;;13.91;51.62;99436.00;5031674;28;20037;-51
2021/05/12 00:34:04;;;;;;;3.97;3.10;;;;;;;14.02;51.06;99435.19;5031451;28;20040;-52
2021/05/12 00:36:30;;;;;;;3.63;2.70;;;;;;;13.96;51.12;99431.56;5031367;28;20030;-52
2021/05/12 00:38:57;;;;;;;4.10;2.63;;;;;;;14.06;51.02;99434.47;5031315;28;20079;-52
2021/05/12 00:41:23;;;;;;;3.97;2.65;;;;;;;14.19;50.66;99438.78;5030897;28;20038;-51
2021/05/12 00:43:48;;;;;;;7.03;3.15;;;;;;;14.14;50.65;99432.50;5030929;28;20036;-52
2021/05/12 00:46:14;;;;;;;3.20;2.70;;;;;;;14.02;51.40;99427.16;5029641;28;20022;-52
2021/05/12 00:48:39;;;;;;;6.95;3.00;;;;;;;14.20;50.98;99424.34;5030686;28;20030;-51
2021/05/12 00:51:05;;;;;;;5.82;2.80;;;;;;;14.15;50.99;99426.91;5030838;28;20029;-52
2021/05/12 00:53:31;;;;;;;4.22;3.03;;;;;;;14.27;50.33;99422.34;5029513;28;20036;-52
2021/05/12 00:55:57;;;;;;;3.70;2.63;;;;;;;14.10;50.67;99417.97;5030899;28;20026;-51
2021/05/12 00:58:22;;;;;;;6.15;2.90;;;;;;;14.04;50.88;99419.72;5013354;28;20029;-50
2021/05/12 01:00:48;;;;;;;4.22;2.67;;;;;;;13.89;51.43;99412.16;5030415;28;20028;-51
2021/05/12 01:03:13;;;;;;;7.72;2.90;;;;;;;14.10;51.22;99407.25;5030729;28;20029;-51
2021/05/12 01:05:58;;;;;;;6.57;3.20;;;;;;;14.06;51.00;99406.91;5030574;28;20033;-50
2021/05/12 01:08:23;;;;;;;4.57;2.90;;;;;;;13.96;51.03;99399.47;5030616;28;20444;-51
2021/05/12 01:10:48;;;;;;;7.32;3.03;;;;;;;13.96;50.79;99401.34;5030747;28;20033;-51
2021/05/12 01:13:14;;;;;;;3.05;2.60;;;;;;;13.93;51.03;99399.94;5030893;28;20022;-50
2021/05/12 01:15:40;;;;;;;4.53;2.58;;;;;;;13.72;51.80;99397.84;5030288;28;20041;-51
2021/05/12 01:18:07;;;;;;;4.97;2.78;;;;;;;13.73;51.76;99394.94;5030069;28;20442;-52
2021/05/12 01:20:33;;;;;;;5.78;2.95;;;;;;;13.73;52.06;99394.94;5030293;28;20031;-50
2021/05/12 01:22:58;;;;;;;4.10;2.83;;;;;;;13.75;52.18;99390.19;5029459;28;20022;-52
2021/05/12 01:25:24;;;;;;;4.55;2.83;;;;;;;13.95;50.93;99391.69;5030418;28;20437;-52
2021/05/12 01:27:49;;;;;;;5.75;3.00;;;;;;;13.78;51.62;99395.03;5030918;28;20441;-51
2021/05/12 01:30:15;;;;;;;5.63;2.95;;;;;;;13.92;51.33;99397.47;5033355;28;20126;-50
2021/05/12 01:32:41;;;;;;;5.35;2.90;;;;;;;13.88;51.03;99391.81;5034441;28;20053;-48
2021/05/12 01:35:08;;;;;;;5.82;2.80;;;;;;;13.74;51.00;99382.38;5034571;28;20026;-48
2021/05/12 01:37:35;;;;;;;5.00;2.95;;;;;;;13.82;51.09;99384.69;5034516;28;20210;-51
2021/05/12 01:40:04;;;;;;;7.43;3.35;;;;;;;14.03;50.58;99385.97;5034626;28;20057;-52
2021/05/12 01:42:30;;;;;;;4.97;2.95;;;;;;;13.87;50.88;99384.81;5034732;28;20116;-52
2021/05/12 01:45:02;;;;;;;5.47;3.10;;;;;;;13.69;51.24;99383.91;5034176;28;20029;-53
2021/05/12 01:47:27;;;;;;;4.50;3.17;;;;;;;13.55;51.58;99385.16;5033255;28;20021;-50
2021/05/12 01:49:58;;;;;;;5.00;3.35;;;;;;;13.55;51.81;99384.34;5034332;28;20724;-51
2021/05/12 01:52:23;;;;;;;7.20;3.50;;;;;;;13.68;51.09;99373.44;5034445;28;20048;-51
2021/05/12 01:54:49;;;;;;;5.00;3.10;;;;;;;13.55;51.39;99374.47;5034536;28;20402;-50
2021/05/12 01:57:14;;;;;;;6.93;3.20;;;;;;;13.51;51.52;99367.97;5034169;28;20017;-50
2021/05/12 01:59:40;;;;;;;5.38;2.95;;;;;;;13.52;51.94;99361.59;5016035;28;20025;-50
2021/05/12 02:02:05;;;;;;;5.35;2.90;;;;;;;13.56;51.32;99368.09;5033798;28;20488;-51
2021/05/12 02:04:31;;;;;;;6.00;3.10;;;;;;;13.52;51.37;99358.06;5033978;28;20026;-52
2021/05/12 02:06:56;;;;;;;5.35;3.15;;;;;;;13.38;51.63;99358.31;5034064;28;20022;-50
2021/05/12 02:09:22;;;;;;;6.22;2.97;;;;;;;13.33;52.04;99350.19;5034116;28;20022;-51
2021/05/12 02:11:47;;;;;;;4.80;3.15;;;;;;;13.27;52.02;99351.88;5034320;28;20033;-51
2021/05/12 02:14:12;;;;;;;4.88;2.90;;;;;;;13.39;51.37;99348.44;5034148;28;20110;-51
2021/05/12 02:16:38;;;;;;;3.88;3.20;;;;;;;13.37;51.36;99346.00;5032056;28;20032;-51
2021/05/12 02:19:04;;;;;;;5.75;3.40;;;;;;;13.48;51.41;99347.88;5033563;28;20052;-51
2021/05/12 02:21:29;;;;;;;8.50;3.40;;;;;;;13.46;51.19;99338.44;5033824;28;20063;-51
2021/05/12 02:23:55;;;;;;;5.78;3.28;;;;;;;13.28;51.74;99342.00;5033559;28;20159;-52
2021/05/12 02:26:21;;;;;;;5.68;3.40;;;;;;;13.34;51.20;99343.78;5033545;28;20373;-50
2021/05/12 02:28:46;;;;;;;6.93;3.58;;;;;;;13.27;51.83;99341.19;5033838;28;20029;-49
2021/05/12 02:31:12;;;;;;;7.38;3.40;;;;;;;13.21;51.82;99341.28;5033639;28;20389;-49
2021/05/12 02:33:37;;;;;;;4.75;3.20;;;;;;;13.09;51.67;99334.06;5033328;28;20068;-52
2021/05/12 02:36:03;;;;;;;4.93;3.10;;;;;;;13.24;52.13;99330.97;5033218;28;20048;-48
2021/05/12 02:38:30;;;;;;;5.20;3.40;;;;;;;13.35;50.97;99333.94;5033265;28;20021;-52
2021/05/12 02:40:55;;;;;;;5.35;3.10;;;;;;;13.38;50.78;99331.56;5031657;28;20027;-52
2021/05/12 02:43:21;;;;;;;13.85;7.07;;;;;;;13.33;51.84;99336.81;5032687;28;20030;-52
2021/05/12 02:45:46;;;;;;;5.93;3.28;;;;;;;13.44;50.49;99327.16;5033378;28;20025;-52
2021/05/12 02:48:12;;;;;;;6.80;3.20;;;;;;;13.24;50.77;99320.28;5033254;28;20511;-52
2021/05/12 02:50:39;;;;;;;4.53;3.00;;;;;;;13.44;50.78;99335.19;5033149;28;20021;-49
2021/05/12 02:53:06;;;;;;;4.43;3.05;;;;;;;13.19;51.40;99330.81;5033144;28;20075;-50
2021/05/12 02:55:31;;;;;;;4.65;3.20;;;;;;;13.34;51.25;99327.75;5032813;28;20025;-49
2021/05/12 02:57:57;;;;;;;6.40;3.10;;;;;;;13.44;51.41;99321.81;5032909;28;20041;-53
2021/05/12 03:00:24;;;;;;;7.18;3.22;;;;;;;13.39;51.13;99327.06;5032760;28;20036;-52
2021/05/12 03:02:49;;;;;;;7.85;3.75;;;;;;;13.54;50.63;99326.59;5032746;28;20032;-53
2021/05/12 03:05:15;;;;;;;5.10;3.10;;;;;;;13.58;50.23;99325.09;5032299;28;20025;-49
2021/05/12 03:07:41;;;;;;;6.38;3.08;;;;;;;13.59;50.17;99326.69;5032198;28;20017;-52
2021/05/12 03:10:09;;;;;;;6.13;3.40;;;;;;;13.47;50.31;99321.38;5032359;28;20022;-50
2021/05/12 03:12:34;;;;;;;8.15;5.15;;;;;;;13.27;50.69;99317.16;5032438;28;20017;-50
2021/05/12 03:15:00;;;;;;;9.20;4.70;;;;;;;13.13;51.36;99322.94;5032440;28;20049;-50
2021/05/12 03:17:25;;;;;;;9.52;3.90;;;;;;;13.08;50.95;99320.97;5032251;28;20033;-49
2021/05/12 03:19:51;;;;;;;6.70;4.90;;;;;;;13.08;51.54;99319.09;5032598;28;20516;-49
2021/05/12 03:22:16;;;;;;;5.78;4.82;;;;;;;13.07;50.67;99324.66;5032742;28;20018;-52
2021/05/12 03:24:42;;;;;;;9.32;5.03;;;;;;;13.25;50.70;99324.59;5032518;28;20126;-50
2021/05/12 03:27:07;;;;;;;7.20;5.03;;;;;;;13.38;50.79;99330.78;5032543;28;20041;-48
2021/05/12 03:29:33;;;;;;;8.70;5.00;;;;;;;13.41;50.46;99324.97;5032238;28;20033;-50
2021/05/12 03:31:58;;;;;;;7.10;4.70;;;;;;;13.47;50.12;99334.72;5032132;28;20059;-51
2021/05/12 03:34:23;;;;;;;6.55;4.70;;;;;;;13.48;50.74;99329.16;5031971;28;20029;-50
2021/05/12 03:36:49;;;;;;;6.75;4.63;;;;;;;13.54;50.39;99329.28;5032289;28;20037;-51
2021/05/12 03:39:14;;;;;;;6.38;4.40;;;;;;;13.54;49.47;99330.09;5032064;28;20060;-50
2021/05/12 03:41:40;;;;;;;4.80;3.85;;;;;;;13.66;49.14;99319.38;5030217;28;20088;-51
2021/05/12 03:44:05;;;;;;;9.77;6.32;;;;;;;13.69;49.16;99321.59;5032001;28;20481;-50
2021/05/12 03:46:31;;;;;;;23.88;13.40;;;;;;;14.11;49.06;99313.38;5031890;28;20104;-47
2021/05/12 03:48:56;;;;;;;10.52;6.80;;;;;;;14.25;48.88;99314.72;5031841;28;20058;-48
2021/05/12 03:51:22;;;;;;;6.60;5.30;;;;;;;14.54;48.28;99313.91;5031967;28;20029;-49
2021/05/12 03:53:47;;;;;;;10.10;5.65;;;;;;;14.80;47.62;99316.03;5031938;28;20382;-51
2021/05/12 03:56:13;;;;;;;10.07;5.50;;;;;;;15.11;47.17;99321.88;5031612;28;20025;-51
2021/05/12 03:58:38;;;;;;;7.22;3.75;;;;;;;15.44;46.41;99333.69;5031893;28;20095;-51
2021/05/12 04:01:03;;;;;;;6.60;3.50;;;;;;;15.73;45.05;99328.19;5031872;28;20021;-52
2021/05/12 04:03:29;;;;;;;3.80;3.17;;;;;;;15.80;44.55;99334.19;5031773;28;20422;-51
2021/05/12 04:05:55;;;;;;;9.05;3.28;;;;;;;15.58;45.15;99332.28;5031693;28;20032;-49
2021/05/12 04:08:23;;;;;;;20.05;12.02;;;;;;;15.43;46.44;99329.38;5031533;28;20481;-50
2021/05/12 04:10:49;;;;;;;10.80;5.60;;;;;;;15.66;45.43;99328.34;5031492;28;20068;-51
2021/05/12 04:13:14;;;;;;;9.35;3.30;;;;;;;16.12;43.61;99326.28;5022808;28;20033;-51
2021/05/12 04:15:40;;;;;;;5.38;3.20;;;;;;;16.15;43.44;99327.69;5011047;28;20061;-52
2021/05/12 04:18:05;;;;;;;4.68;3.13;;;;;;;16.23;43.64;99314.63;5010864;28;20453;-51
2021/05/12 04:20:31;;;;;;;6.57;3.22;;;;;;;16.30;43.55;99305.59;5010969;28;20056;-53
2021/05/12 04:22:56;;;;;;;6.60;3.10;;;;;;;16.26;43.40;99310.63;5010807;28;20026;-50
2021/05/12 04:25:22;;;;;;;5.25;2.90;;;;;;;16.59;42.80;99311.53;5011035;28;20022;-51
2021/05/12 04:27:48;;;;;;;6.35;3.30;;;;;;;16.60;42.72;99311.28;5009414;28;20018;-52
2021/05/12 04:30:17;;;;;;;6.57;3.30;;;;;;;16.27;42.76;99292.66;5009055;28;20084;-51
2021/05/12 04:32:42;;;;;;;6.32;3.22;;;;;;;16.72;42.30;99303.06;5010539;28;20046;-52
2021/05/12 04:35:08;;;;;;;6.82;3.08;;;;;;;16.59;42.60;99300.78;5010269;28;20026;-51
2021/05/12 04:37:34;;;;;;;9.55;3.22;;;;;;;16.98;41.49;99269.19;5010164;28;20160;-51
2021/05/12 04:39:59;;;;;;;6.72;3.33;;;;;;;17.28;40.80;99301.91;5026561;28;20124;-48
2021/05/12 04:42:25;;;;;;;7.55;3.75;;;;;;;17.63;40.49;99297.81;5029746;28;20053;-52
2021/05/12 04:44:52;;;;;;;5.70;3.90;;;;;;;17.34;40.84;99300.88;5029938;28;20079;-51
2021/05/12 04:47:18;;;;;;;9.00;3.80;;;;;;;17.38;41.10;99297.44;5029615;28;20034;-50
2021/05/12 04:49:43;;;;;;;10.63;5.50;;;;;;;17.69;40.20;99300.28;5029977;28;20033;-53
2021/05/12 04:52:09;;;;;;;7.38;5.03;;;;;;;17.39;41.43;99298.22;5029930;28;20481;-52
2021/05/12 04:54:34;;;;;;;10.35;4.82;;;;;;;17.63;40.70;99295.97;5029763;28;20386;-50
2021/05/12 04:56:59;;;;;;;9.15;4.50;;;;;;;17.58;40.23;99294.03;5027570;28;20029;-51
2021/05/12 04:59:25;;;;;;;6.80;3.88;;;;;;;17.84;40.12;99291.53;5029595;28;20422;-51
2021/05/12 05:01:51;;;;;;;5.40;3.58;;;;;;;17.97;39.63;99290.22;5029402;28;20025;-49
2021/05/12 05:04:17;;;;;;;4.20;3.10;;;;;;;18.26;38.66;99287.09;5029334;28;20033;-50
2021/05/12 05:06:43;;;;;;;9.63;3.30;;;;;;;18.05;38.79;99284.34;5029527;28;20401;-49
2021/05/12 05:09:09;;;;;;;4.45;3.20;;;;;;;18.02;39.62;99281.38;5029818;28;20103;-53
2021/05/12 05:11:34;;;;;;;3.83;3.20;;;;;;;18.41;38.46;99291.69;5029953;28;20153;-52
2021/05/12 05:14:00;;;;;;;7.15;4.15;;;;;;;18.85;38.27;99280.47;5029446;28;20068;-49
2021/05/12 05:16:25;;;;;;;7.43;3.35;;;;;;;19.20;37.47;99278.84;5029536;28;20029;-51
2021/05/12 05:18:53;;;;;;;4.88;3.33;;;;;;;19.53;37.78;99277.44;5028363;28;20033;-50
2021/05/12 05:21:19;;;;;;;6.35;3.20;;;;;;;19.86;36.69;99235.53;5028059;28;20112;-52
2021/05/12 05:23:44;;;;;;;5.57;3.10;;;;;;;20.48;35.71;99276.50;5028171;28;20018;-52
2021/05/12 05:26:09;;;;;;;5.40;3.10;;;;;;;20.76;36.28;99274.19;5029957;28;20025;-52
2021/05/12 05:28:35;;;;;;;6.93;3.20;;;;;;;21.43;34.74;99274.38;5029612;28;20394;-52
2021/05/12 05:31:01;;;;;;;12.30;3.50;;;;;;;21.47;35.49;99271.94;5029655;28;20029;-52
2021/05/12 05:33:26;;;;;;;6.35;3.30;;;;;;;22.22;33.00;99286.78;5030049;28;20109;-50
2021/05/12 05:35:51;;;;;;;7.32;3.85;;;;;;;22.04;32.66;99278.31;5029952;28;20040;-51
2021/05/12 05:38:18;;;;;;;6.13;3.55;;;;;;;22.15;32.98;99280.91;5029474;28;20018;-50
2021/05/12 05:40:44;;;;;;;6.53;3.70;;;;;;;21.92;33.14;99279.84;5025972;28;20104;-52
2021/05/12 05:43:10;;;;;;;5.22;3.58;;;;;;;22.27;32.37;99273.16;5029749;28;20462;-53
2021/05/12 05:45:35;;;;;;;9.25;3.75;;;;;;;22.19;32.84;99271.88;5029106;28;20026;-53
2021/05/12 05:48:01;;;;;;;6.72;3.67;;;;;;;22.43;32.60;99265.66;5029129;28;20060;-51
2021/05/12 05:50:26;;;;;;;7.53;3.00;;;;;;;23.18;32.17;99266.63;5029559;28;20020;-49
2021/05/12 05:52:55;;;;;;;6.20;3.60;;;;;;;23.27;31.55;99266.75;5029106;28;20397;-49
2021/05/12 05:55:21;;;;;;;7.05;3.85;;;;;;;23.11;31.08;99258.06;5026747;28;20025;-50
2021/05/12 05:57:48;;;;;;;4.70;3.30;;;;;;;23.35;30.92;99256.00;5026797;28;20480;-49
2021/05/12 06:00:14;;;;;;;7.43;3.42;;;;;;;23.59;31.02;99252.31;5028617;28;20104;-51
2021/05/12 06:02:39;;;;;;;4.93;3.30;;;;;;;23.37;30.62;99255.69;5029150;28;20473;-50
2021/05/12 06:05:05;;;;;;;7.05;3.80;;;;;;;23.54;30.48;99247.75;5029075;28;20040;-52
2021/05/12 06:07:31;;;;;;;6.35;3.67;;;;;;;23.34;30.69;99246.25;5028667;28;20030;-48
2021/05/12 06:09:56;;;;;;;7.20;3.53;;;;;;;22.84;31.89;99254.16;5028299;28;20033;-49
2021/05/12 06:12:22;;;;;;;6.03;3.60;;;;;;;22.89;31.81;99237.81;5028066;28;20029;-51
2021/05/12 06:14:47;;;;;;;6.53;3.60;;;;;;;23.86;30.85;99240.66;5026626;28;20100;-50
2021/05/12 06:17:13;;;;;;;7.93;4.00;;;;;;;24.34;29.05;99239.34;5012786;28;20030;-52
2021/05/12 06:19:38;;;;;;;7.85;3.75;;;;;;;24.36;28.98;99237.09;5013097;28;20022;-51
2021/05/12 06:22:04;;;;;;;5.85;4.13;;;;;;;24.57;29.00;99234.75;5013228;28;20033;-50
2021/05/12 06:24:29;;;;;;;7.40;3.60;;;;;;;24.09;30.34;99236.06;5013577;28;20512;-50
2021/05/12 06:26:55;;;;;;;7.90;3.63;;;;;;;24.59;29.78;99230.59;5011566;28;20509;-51
2021/05/12 06:29:20;;;;;;;8.75;3.83;;;;;;;25.22;29.18;99233.38;5019621;28;20033;-50
2021/05/12 06:31:46;;;;;;;7.20;4.22;;;;;;;25.36;29.19;99231.38;5032746;28;20429;-52
2021/05/12 06:34:11;;;;;;;10.38;4.55;;;;;;;25.64;28.23;99222.97;5032602;28;20111;-51
2021/05/12 06:36:37;;;;;;;7.65;4.10;;;;;;;26.40;27.49;99237.38;5032043;28;20029;-51
2021/05/12 06:39:03;;;;;;;10.88;3.83;;;;;;;27.15;26.60;99218.00;5032148;28;20377;-50
2021/05/12 06:41:30;;;;;;;8.98;3.60;;;;;;;27.09;26.92;99215.47;5032008;28;20029;-50
2021/05/12 06:43:56;;;;;;;9.63;4.57;;;;;;;27.21;25.85;99214.78;5031809;28;20483;-53
2021/05/12 06:46:21;;;;;;;10.60;3.95;;;;;;;27.72;26.14;99220.38;5031417;28;20029;-53
2021/05/12 06:48:47;;;;;;;7.20;4.32;;;;;;;27.36;25.83;99212.66;5029457;28;20036;-52
2021/05/12 06:51:13;;;;;;;9.18;4.50;;;;;;;26.93;26.29;99211.66;5029320;28;20037;-51
2021/05/12 06:53:38;;;;;;;8.18;4.43;;;;;;;26.94;26.50;99198.81;5028980;28;20087;-51
2021/05/12 06:56:04;;;;;;;6.55;4.43;;;;;;;26.42;27.14;99208.66;5028828;28;20505;-51
2021/05/12 06:58:30;;;;;;;8.75;4.90;;;;;;;26.33;27.41;99205.13;5026092;28;20034;-50
2021/05/12 07:00:55;;;;;;;8.52;5.10;;;;;;;27.17;26.13;99202.91;5027170;28;20354;-50
2021/05/12 07:03:24;;;;;;;10.68;5.38;;;;;;;25.63;27.88;99199.59;5031736;28;20104;-47
2021/05/12 07:05:51;;;;;;;13.53;5.60;;;;;;;23.87;30.03;99190.63;5030593;28;20029;-49
2021/05/12 07:08:16;;;;;;;10.38;5.63;;;;;;;23.84;30.98;99193.13;5028852;28;20511;-47
2021/05/12 07:10:42;;;;;;;7.82;5.10;;;;;;;23.95;30.26;99187.19;5023438;28;20025;-48
2021/05/12 07:13:07;;;;;;;9.48;4.97;;;;;;;24.61;29.94;99188.69;5015653;28;20028;-53
2021/05/12 07:15:33;;;;;;;11.75;5.28;;;;;;;25.31;29.12;99187.16;5028412;28;20119;-51
2021/05/12 07:17:58;;;;;;;10.55;5.80;;;;;;;25.11;28.96;99193.91;5031863;28;20108;-50
2021/05/12 07:20:24;;;;;;;10.63;5.70;;;;;;;24.57;30.08;99193.94;5032382;28;20025;-50
2021/05/12 07:22:49;;;;;;;10.48;5.95;;;;;;;24.64;29.72;99188.09;5030925;28;20052;-50
2021/05/12 07:25:15;;;;;;;9.60;5.80;;;;;;;23.03;32.03;99180.88;5031922;28;20504;-50
2021/05/12 07:27:41;;;;;;;9.45;6.07;;;;;;;23.40;32.23;99185.31;5031607;28;20026;-49
2021/05/12 07:30:07;;;;;;;12.55;6.00;;;;;;;22.23;33.97;99180.78;5032543;28;20025;-52
2021/05/12 07:32:33;;;;;;;9.52;5.47;;;;;;;22.16;34.05;99177.66;5031771;28;20038;-51
2021/05/12 07:34:58;;;;;;;10.43;5.20;;;;;;;21.54;35.33;99179.59;5032256;28;20044;-49
2021/05/12 07:37:24;;;;;;;9.77;5.40;;;;;;;21.70;34.54;99170.16;5031670;28;20422;-49
2021/05/12 07:39:50;;;;;;;5.72;4.38;;;;;;;21.93;34.77;99173.09;5031673;28;20053;-48
2021/05/12 07:42:17;;;;;;;7.93;5.00;;;;;;;23.08;32.77;99169.13;5031733;28;20060;-49
2021/05/12 07:44:43;;;;;;;7.70;4.70;;;;;;;23.59;32.24;99166.22;5031917;28;20064;-50
2021/05/12 07:47:09;;;;;;;9.35;5.20;;;;;;;23.54;32.08;99171.75;5031490;28;20026;-48
2021/05/12 07:49:34;;;;;;;8.77;4.88;;;;;;;24.44;31.02;99159.44;5031420;28;20033;-48
2021/05/12 07:52:00;;;;;;;8.50;4.45;;;;;;;24.71;29.88;99158.50;5031684;28;20072;-50
2021/05/12 07:54:25;;;;;;;6.50;4.30;;;;;;;25.22;29.50;99157.13;5014004;28;20029;-49
2021/05/12 07:56:51;;;;;;;9.93;4.70;;;;;;;25.67;28.51;99158.91;5031341;28;20033;-50
2021/05/12 07:59:16;;;;;;;6.63;3.75;;;;;;;25.41;29.03;99156.13;5030796;28;20444;-52
2021/05/12 08:01:44;;;;;;;5.57;3.30;;;;;;;24.98;29.16;99147.44;5030221;28;20109;-50
2021/05/12 08:04:10;;;;;;;6.25;3.92;;;;;;;25.30;28.77;99137.34;5030143;28;20420;-50
2021/05/12 08:06:35;;;;;;;7.55;3.75;;;;;;;24.76;29.41;99136.63;5031372;28;20127;-48
2021/05/12 08:09:05;;;;;;;7.68;3.60;;;;;;;25.13;28.84;99139.97;5030949;28;20040;-49
2021/05/12 08:11:31;;;;;;;7.13;3.58;;;;;;;24.73;29.60;99145.38;5031265;28;20033;-51
2021/05/12 08:13:56;;;;;;;4.75;3.10;;;;;;;25.47;29.04;99146.66;5029639;28;20140;-52
2021/05/12 08:16:21;;;;;;;4.90;3.20;;;;;;;25.81;28.05;99142.41;5030804;28;20029;-49
2021/05/12 08:18:47;;;;;;;5.63;3.10;;;;;;;26.34;27.33;99144.03;5030295;28;20029;-51
2021/05/12 08:21:12;;;;;;;6.40;3.50;;;;;;;26.40;27.38;99142.72;5030843;28;20033;-51
2021/05/12 08:23:38;;;;;;;5.22;2.90;;;;;;;26.70;27.15;99142.84;5030714;28;20025;-51
2021/05/12 08:26:04;;;;;;;5.30;2.97;;;;;;;26.79;26.84;99130.00;5030927;28;20136;-51
2021/05/12 08:28:29;;;;;;;5.25;3.25;;;;;;;26.91;27.05;99132.03;5030918;28;20319;-49
2021/05/12 08:30:56;;;;;;;4.93;2.70;;;;;;;26.19;27.34;99123.50;5030586;28;20037;-50
2021/05/12 08:33:22;;;;;;;5.18;2.90;;;;;;;25.98;28.57;99123.34;5029023;28;20075;-49
2021/05/12 08:35:48;;;;;;;7.53;2.60;;;;;;;25.92;27.32;99124.66;5030755;28;20465;-50
2021/05/12 08:38:20;;;;;;;5.03;2.80;;;;;;;24.98;29.07;99114.78;5029833;28;20076;-49
2021/05/12 08:40:46;;;;;;;6.60;3.00;;;;;;;25.94;28.00;99109.56;5030475;28;20410;-49
2021/05/12 08:43:13;;;;;;;4.78;2.90;;;;;;;26.23;27.56;99089.00;5030561;28;20025;-50
2021/05/12 08:45:39;;;;;;;6.75;2.67;;;;;;;26.18;27.80;99088.38;5030458;28;20025;-51
2021/05/12 08:48:10;;;;;;;7.80;2.90;;;;;;;26.72;27.79;99091.47;5030365;28;20083;-49
2021/05/12 08:50:35;;;;;;;4.35;2.80;;;;;;;27.38;26.81;99087.47;5029746;28;20178;-51
2021/05/12 08:53:01;;;;;;;6.63;2.80;;;;;;;27.09;27.41;99081.69;5029170;28;20532;-51
2021/05/12 08:55:26;;;;;;;4.07;2.72;;;;;;;27.59;26.81;99093.78;5012289;28;20033;-49
2021/05/12 08:57:52;;;;;;;4.57;2.20;;;;;;;28.44;25.90;99087.09;5030177;28;20025;-50
2021/05/12 09:00:18;;;;;;;5.00;2.72;;;;;;;28.31;25.55;99085.47;5030172;28;20029;-50
2021/05/12 09:02:44;;;;;;;3.63;2.53;;;;;;;27.19;26.27;99076.94;5029962;28;20025;-48
2021/05/12 09:05:10;;;;;;;5.72;2.70;;;;;;;25.04;28.98;99082.00;5029320;28;20025;-49
2021/05/12 09:07:35;;;;;;;4.28;2.47;;;;;;;24.69;29.75;99066.31;5029671;28;20026;-52
2021/05/12 09:10:02;;;;;;;4.65;2.40;;;;;;;24.72;29.89;99059.47;5029907;28;20025;-51
2021/05/12 09:12:43;;;;;;;3.95;2.42;;;;;;;25.67;29.13;99058.09;5030105;28;20041;-50
2021/05/12 09:15:09;;;;;;;8.18;2.65;;;;;;;24.51;30.61;99049.13;5029818;28;20099;-49
2021/05/12 09:17:39;;;;;;;6.10;2.25;;;;;;;24.93;30.63;99043.38;5028034;28;20115;-49
2021/05/12 09:20:25;;;;;;;6.10;2.40;;;;;;;24.69;30.64;99041.03;5030596;28;20033;-51
2021/05/12 09:22:59;;;;;;;6.60;2.50;;;;;;;24.06;30.55;99041.00;5030081;28;20409;-53
2021/05/12 09:25:25;;;;;;;5.78;2.15;;;;;;;24.15;31.11;99025.56;5029923;28;20036;-52
2021/05/12 09:27:52;;;;;;;8.57;2.05;;;;;;;24.95;30.31;99028.34;5029285;28;20022;-52
2021/05/12 09:30:23;;;;;;;8.50;2.30;;;;;;;24.45;30.90;99022.38;5029369;28;20079;-52
2021/05/12 09:32:49;;;;;;;6.72;2.33;;;;;;;24.41;30.87;99030.34;5029860;28;20129;-51
2021/05/12 09:35:15;;;;;;;4.32;2.25;;;;;;;24.71;29.96;99030.66;5029872;28;20112;-50
2021/05/12 09:37:44;;;;;;;5.80;2.03;;;;;;;23.95;30.64;99034.22;5029240;28;20034;-52
2021/05/12 09:40:11;;;;;;;3.10;2.28;;;;;;;23.10;33.07;99020.41;5029617;28;20460;-50
2021/05/12 09:42:38;;;;;;;3.55;2.17;;;;;;;24.39;30.95;99014.34;5029505;28;20025;-49
2021/05/12 09:45:10;;;;;;;4.65;2.28;;;;;;;25.61;29.54;98992.09;5029734;28;20036;-37
2021/05/12 09:47:36;;;;;;;4.50;2.17;;;;;;;23.99;31.28;99002.63;5029739;28;20084;-38
2021/05/12 09:50:16;;;;;;;3.47;2.00;;;;;;;24.61;30.18;99001.81;5032023;28;20026;-37
2021/05/12 09:52:42;;;;;;;5.95;2.50;;;;;;;24.06;31.00;98997.53;5032324;28;20390;-37
2021/05/12 09:55:09;;;;;;;5.13;2.40;;;;;;;24.08;31.45;99003.47;5032932;28;20032;-37
2021/05/12 09:57:34;;;;;;;2.92;2.30;;;;;;;24.34;31.14;99000.09;5033931;28;20496;-37
2021/05/12 10:00:00;;;;;;;4.65;2.30;;;;;;;25.61;29.53;98970.28;5033653;28;20025;-37
2021/05/12 10:02:25;;;;;;;3.40;2.58;;;;;;;26.28;28.11;98981.72;5032366;28;20120;-38
2021/05/12 10:04:51;;;;;;;3.47;2.50;;;;;;;25.83;28.96;98984.84;5032006;28;20481;-36
2021/05/12 10:07:24;;;;;;;7.47;2.70;;;;;;;26.20;29.15;98998.88;5015535;28;20386;-37
2021/05/12 10:09:50;;;;;;;3.75;2.85;;;;;;;25.35;30.01;98994.81;5033447;28;20025;-38
2021/05/12 10:12:25;;;;;;;5.90;2.60;;;;;;;26.00;29.53;98986.75;5033503;28;20041;-37
2021/05/12 10:14:57;;;;;;;3.90;2.60;;;;;;;26.04;29.21;98996.69;5033597;28;20124;-37
2021/05/12 10:17:24;;;;;;;4.40;2.33;;;;;;;26.31;28.99;98978.31;5033642;28;20464;-38
2021/05/12 10:19:50;;;;;;;7.13;2.47;;;;;;;26.44;29.18;98988.19;5033087;28;20117;-38
2021/05/12 10:22:16;;;;;;;5.05;2.53;;;;;;;26.17;29.59;98991.38;5033370;28;20108;-38
2021/05/12 10:24:43;;;;;;;6.30;2.92;;;;;;;26.70;28.46;98990.06;5033128;28;20385;-38
2021/05/12 10:27:15;;;;;;;5.45;2.60;;;;;;;26.33;28.77;98976.06;5031515;28;20025;-37
2021/05/12 10:29:52;;;;;;;5.95;2.63;;;;;;;25.91;29.68;98975.84;5032116;28;20438;-38
2021/05/12 10:32:31;;;;;;;5.10;2.85;;;;;;;26.49;28.97;98970.88;5031934;28;20059;-38
2021/05/12 10:35:00;;;;;;;5.45;2.83;;;;;;;26.52;29.35;98962.84;5032950;28;20142;-38
2021/05/12 10:37:27;;;;;;;6.90;2.90;;;;;;;26.13;29.90;98959.28;5032776;28;20025;-37
2021/05/12 10:40:02;;;;;;;4.60;3.20;;;;;;;25.85;29.91;98955.34;5033050;28;20083;-38
2021/05/12 10:43:31;;;;;;;5.50;3.17;;;;;;;26.85;28.60;98951.28;5033109;28;20078;-36
2021/05/12 10:45:39;;;;;;;7.82;2.97;;;;;;;26.90;29.04;98955.72;5034440;28;20047;-37
2021/05/12 10:48:05;;;;;;;9.13;2.90;;;;;;;26.07;30.75;98955.16;5032536;28;20029;-39
2021/05/12 10:50:47;;;;;;;4.22;2.53;;;;;;;26.89;30.02;98954.16;5033168;28;20125;-38
2021/05/12 10:53:24;;;;;;;5.95;2.80;;;;;;;27.54;28.84;98960.09;5033128;28;20021;-38
2021/05/12 10:55:59;;;;;;;6.30;2.85;;;;;;;27.59;28.84;98956.38;5032985;28;20199;-38
2021/05/12 10:58:26;;;;;;;5.30;2.80;;;;;;;27.50;29.27;98953.69;5032771;28;20122;-38
2021/05/12 11:00:58;;;;;;;4.13;2.67;;;;;;;26.99;30.09;98940.09;5031595;28;20048;-38
2021/05/12 11:03:24;;;;;;;3.45;2.55;;;;;;;27.12;30.11;98949.16;5032752;28;20037;-37
2021/05/12 11:05:53;;;;;;;6.20;2.63;;;;;;;26.33;30.93;98940.59;5032832;28;20059;-37
2021/05/12 11:08:19;;;;;;;3.72;2.67;;;;;;;25.58;32.06;98937.44;5032662;28;20087;-38
2021/05/12 11:11:01;;;;;;;3.08;2.40;;;;;;;26.32;31.43;98936.28;5032510;28;20481;-37
2021/05/12 11:13:31;;;;;;;5.25;2.47;;;;;;;26.44;31.63;98941.84;5032491;28;20091;-38
2021/05/12 11:16:00;;;;;;;4.72;2.53;;;;;;;26.55;30.73;98938.75;5032546;28;20033;-38
2021/05/12 11:18:49;;;;;;;6.53;2.80;;;;;;;27.38;29.53;98934.50;5032207;28;20026;-38
2021/05/12 11:21:23;;;;;;;9.20;2.75;;;;;;;26.98;30.90;98929.50;5031748;28;20108;-37
2021/05/12 11:24:01;;;;;;;8.95;3.05;;;;;;;27.68;29.21;98933.28;5031893;28;20041;-37
2021/05/12 11:32:02;;;;;;;6.25;2.60;;;;;;;28.20;28.93;98931.13;5032632;28;20029;-37
2021/05/12 11:34:28;;;;;;;4.45;2.90;;;;;;;27.83;29.56;98934.53;5032296;28;20117;-37
2021/05/12 11:37:08;;;;;;;4.85;2.60;;;;;;;27.00;30.78;98930.78;5032316;28;20064;-37